sensor_id;sensor_type;location;lat;lon;timestamp;P1;durP1;ratioP1;P2;durP2;ratioP2
46222;SDS011;31943;51.410;7.564;2024-03-22T00:00:40;29.25;;;21.95;;
46222;SDS011;31943;51.410;7.564;2024-03-22T00:03:06;30.85;;;22.38;;
46222;SDS011;31943;51.410;7.564;2024-03-22T00:05:31;34.08;;;22.65;;
46222;SDS011;31943;51.410;7.564;2024-03-22T00:07:57;29.70;;;21.88;;
46222;SDS011;31943;51.410;7.564;2024-03-22T00:10:22;31.10;;;22.65;;
46222;SDS011;31943;51.410;7.564;2024-03-22T00:12:50;29.33;;;20.65;;
46222;SDS011;31943;51.410;7.564;2024-03-22T00:15:15;29.33;;;20.63;;
46222;SDS011;31943;51.410;7.564;2024-03-22T00:17:42;31.55;;;21.90;;
46222;SDS011;31943;51.410;7.564;2024-03-22T00:20:10;28.65;;;20.80;;
46222;SDS011;31943;51.410;7.564;2024-03-22T00:22:35;30.20;;;21.13;;
46222;SDS011;31943;51.410;7.564;2024-03-22T00:25:01;29.35;;;20.90;;
46222;SDS011;31943;51.410;7.564;2024-03-22T00:27:26;29.73;;;21.50;;
46222;SDS011;31943;51.410;7.564;2024-03-22T00:29:54;33.42;;;21.52;;
46222;SDS011;31943;51.410;7.564;2024-03-22T00:32:19;31.77;;;21.63;;
46222;SDS011;31943;51.410;7.564;2024-03-22T00:34:45;32.45;;;21.90;;
46222;SDS011;31943;51.410;7.564;2024-03-22T00:37:11;29.52;;;21.10;;
46222;SDS011;31943;51.410;7.564;2024-03-22T00:39:36;30.95;;;21.88;;
46222;SDS011;31943;51.410;7.564;2024-03-22T00:42:02;29.67;;;21.15;;
46222;SDS011;31943;51.410;7.564;2024-03-22T00:44:28;30.27;;;22.13;;
46222;SDS011;31943;51.410;7.564;2024-03-22T00:46:56;28.02;;;21.60;;
46222;SDS011;31943;51.410;7.564;2024-03-22T00:49:21;28.35;;;21.00;;
46222;SDS011;31943;51.410;7.564;2024-03-22T00:51:47;29.33;;;20.67;;
46222;SDS011;31943;51.410;7.564;2024-03-22T00:54:13;28.67;;;20.90;;
46222;SDS011;31943;51.410;7.564;2024-03-22T00:56:38;29.10;;;21.27;;
46222;SDS011;31943;51.410;7.564;2024-03-22T00:59:04;29.85;;;21.48;;
46222;SDS011;31943;51.410;7.564;2024-03-22T01:01:30;30.23;;;21.85;;
46222;SDS011;31943;51.410;7.564;2024-03-22T01:03:57;26.13;;;20.20;;
46222;SDS011;31943;51.410;7.564;2024-03-22T01:06:22;31.55;;;19.55;;
46222;SDS011;31943;51.410;7.564;2024-03-22T01:08:48;30.90;;;21.58;;
46222;SDS011;31943;51.410;7.564;2024-03-22T01:11:13;31.30;;;21.35;;
46222;SDS011;31943;51.410;7.564;2024-03-22T01:13:40;32.03;;;21.55;;
46222;SDS011;31943;51.410;7.564;2024-03-22T01:16:05;31.08;;;21.13;;
46222;SDS011;31943;51.410;7.564;2024-03-22T01:18:31;31.10;;;22.00;;
46222;SDS011;31943;51.410;7.564;2024-03-22T01:20:58;27.98;;;20.38;;
46222;SDS011;31943;51.410;7.564;2024-03-22T01:23:23;27.27;;;20.67;;
46222;SDS011;31943;51.410;7.564;2024-03-22T01:25:49;29.75;;;21.00;;
46222;SDS011;31943;51.410;7.564;2024-03-22T01:28:14;31.65;;;21.30;;
46222;SDS011;31943;51.410;7.564;2024-03-22T01:30:40;27.08;;;19.33;;
46222;SDS011;31943;51.410;7.564;2024-03-22T01:33:05;30.15;;;20.80;;
46222;SDS011;31943;51.410;7.564;2024-03-22T01:35:31;28.80;;;19.95;;
46222;SDS011;31943;51.410;7.564;2024-03-22T01:37:58;28.88;;;20.38;;
46222;SDS011;31943;51.410;7.564;2024-03-22T01:40:24;33.75;;;20.95;;
46222;SDS011;31943;51.410;7.564;2024-03-22T01:42:52;29.35;;;20.10;;
46222;SDS011;31943;51.410;7.564;2024-03-22T01:45:18;31.08;;;20.75;;
46222;SDS011;31943;51.410;7.564;2024-03-22T01:47:43;30.05;;;20.52;;
46222;SDS011;31943;51.410;7.564;2024-03-22T01:50:10;32.63;;;21.50;;
46222;SDS011;31943;51.410;7.564;2024-03-22T01:52:36;31.75;;;20.75;;
46222;SDS011;31943;51.410;7.564;2024-03-22T01:55:04;32.03;;;21.27;;
46222;SDS011;31943;51.410;7.564;2024-03-22T01:57:30;32.40;;;19.13;;
46222;SDS011;31943;51.410;7.564;2024-03-22T01:59:56;31.65;;;19.90;;
46222;SDS011;31943;51.410;7.564;2024-03-22T02:02:23;31.27;;;19.33;;
46222;SDS011;31943;51.410;7.564;2024-03-22T02:04:50;29.42;;;20.15;;
46222;SDS011;31943;51.410;7.564;2024-03-22T02:07:15;27.60;;;19.08;;
46222;SDS011;31943;51.410;7.564;2024-03-22T02:09:41;33.38;;;21.30;;
46222;SDS011;31943;51.410;7.564;2024-03-22T02:12:08;27.50;;;18.85;;
46222;SDS011;31943;51.410;7.564;2024-03-22T02:14:34;27.63;;;18.67;;
46222;SDS011;31943;51.410;7.564;2024-03-22T02:16:59;30.20;;;19.35;;
46222;SDS011;31943;51.410;7.564;2024-03-22T02:19:25;33.80;;;20.08;;
46222;SDS011;31943;51.410;7.564;2024-03-22T02:21:50;29.70;;;18.77;;
46222;SDS011;31943;51.410;7.564;2024-03-22T02:24:17;28.50;;;18.90;;
46222;SDS011;31943;51.410;7.564;2024-03-22T02:26:43;28.40;;;20.15;;
46222;SDS011;31943;51.410;7.564;2024-03-22T02:29:09;27.70;;;17.88;;
46222;SDS011;31943;51.410;7.564;2024-03-22T02:31:34;30.42;;;20.17;;
46222;SDS011;31943;51.410;7.564;2024-03-22T02:34:00;29.30;;;18.77;;
46222;SDS011;31943;51.410;7.564;2024-03-22T02:36:27;29.65;;;19.77;;
46222;SDS011;31943;51.410;7.564;2024-03-22T02:38:53;29.02;;;17.77;;
46222;SDS011;31943;51.410;7.564;2024-03-22T02:41:20;28.80;;;18.00;;
46222;SDS011;31943;51.410;7.564;2024-03-22T02:43:46;29.25;;;19.50;;
46222;SDS011;31943;51.410;7.564;2024-03-22T02:46:12;32.10;;;19.42;;
46222;SDS011;31943;51.410;7.564;2024-03-22T02:48:37;27.67;;;19.52;;
46222;SDS011;31943;51.410;7.564;2024-03-22T02:51:03;27.90;;;17.83;;
46222;SDS011;31943;51.410;7.564;2024-03-22T02:53:28;28.35;;;19.85;;
46222;SDS011;31943;51.410;7.564;2024-03-22T02:55:54;29.73;;;20.00;;
46222;SDS011;31943;51.410;7.564;2024-03-22T02:58:21;28.70;;;19.35;;
46222;SDS011;31943;51.410;7.564;2024-03-22T03:00:46;29.48;;;19.75;;
46222;SDS011;31943;51.410;7.564;2024-03-22T03:03:12;27.17;;;17.95;;
46222;SDS011;31943;51.410;7.564;2024-03-22T03:05:38;28.80;;;19.10;;
46222;SDS011;31943;51.410;7.564;2024-03-22T03:08:04;33.28;;;19.63;;
46222;SDS011;31943;51.410;7.564;2024-03-22T03:10:29;27.27;;;17.85;;
46222;SDS011;31943;51.410;7.564;2024-03-22T03:12:55;27.73;;;18.17;;
46222;SDS011;31943;51.410;7.564;2024-03-22T03:15:22;25.55;;;17.77;;
46222;SDS011;31943;51.410;7.564;2024-03-22T03:17:47;26.55;;;18.98;;
46222;SDS011;31943;51.410;7.564;2024-03-22T03:20:13;28.42;;;19.92;;
46222;SDS011;31943;51.410;7.564;2024-03-22T03:22:39;26.45;;;19.15;;
46222;SDS011;31943;51.410;7.564;2024-03-22T03:25:05;29.98;;;19.50;;
46222;SDS011;31943;51.410;7.564;2024-03-22T03:27:31;25.40;;;18.08;;
46222;SDS011;31943;51.410;7.564;2024-03-22T03:29:56;27.42;;;18.95;;
46222;SDS011;31943;51.410;7.564;2024-03-22T03:32:23;25.63;;;16.63;;
46222;SDS011;31943;51.410;7.564;2024-03-22T03:34:49;28.02;;;19.25;;
46222;SDS011;31943;51.410;7.564;2024-03-22T03:37:14;28.50;;;18.67;;
46222;SDS011;31943;51.410;7.564;2024-03-22T03:39:40;28.17;;;19.10;;
46222;SDS011;31943;51.410;7.564;2024-03-22T03:42:06;26.05;;;18.27;;
46222;SDS011;31943;51.410;7.564;2024-03-22T03:44:32;26.13;;;18.05;;
46222;SDS011;31943;51.410;7.564;2024-03-22T03:46:59;27.25;;;18.17;;
46222;SDS011;31943;51.410;7.564;2024-03-22T03:49:28;27.67;;;19.15;;
46222;SDS011;31943;51.410;7.564;2024-03-22T03:51:54;25.70;;;18.67;;
46222;SDS011;31943;51.410;7.564;2024-03-22T03:54:20;27.80;;;18.10;;
46222;SDS011;31943;51.410;7.564;2024-03-22T03:56:45;27.20;;;19.27;;
46222;SDS011;31943;51.410;7.564;2024-03-22T03:59:11;25.75;;;18.25;;
46222;SDS011;31943;51.410;7.564;2024-03-22T04:01:38;26.58;;;18.42;;
46222;SDS011;31943;51.410;7.564;2024-03-22T04:04:03;27.60;;;18.60;;
46222;SDS011;31943;51.410;7.564;2024-03-22T04:06:31;27.73;;;19.58;;
46222;SDS011;31943;51.410;7.564;2024-03-22T04:08:58;25.27;;;17.95;;
46222;SDS011;31943;51.410;7.564;2024-03-22T04:11:23;26.17;;;18.73;;
46222;SDS011;31943;51.410;7.564;2024-03-22T04:13:49;24.38;;;17.88;;
46222;SDS011;31943;51.410;7.564;2024-03-22T04:16:15;28.20;;;18.23;;
46222;SDS011;31943;51.410;7.564;2024-03-22T04:18:40;24.98;;;17.40;;
46222;SDS011;31943;51.410;7.564;2024-03-22T04:21:06;27.80;;;18.13;;
46222;SDS011;31943;51.410;7.564;2024-03-22T04:23:35;27.17;;;18.85;;
46222;SDS011;31943;51.410;7.564;2024-03-22T04:26:02;25.80;;;18.50;;
46222;SDS011;31943;51.410;7.564;2024-03-22T04:28:28;27.92;;;18.25;;
46222;SDS011;31943;51.410;7.564;2024-03-22T04:30:54;25.55;;;18.25;;
46222;SDS011;31943;51.410;7.564;2024-03-22T04:33:21;23.73;;;17.02;;
46222;SDS011;31943;51.410;7.564;2024-03-22T04:35:46;26.92;;;18.52;;
46222;SDS011;31943;51.410;7.564;2024-03-22T04:38:13;24.85;;;17.52;;
46222;SDS011;31943;51.410;7.564;2024-03-22T04:40:40;22.83;;;16.80;;
46222;SDS011;31943;51.410;7.564;2024-03-22T04:43:06;27.35;;;18.05;;
46222;SDS011;31943;51.410;7.564;2024-03-22T04:45:32;26.35;;;17.40;;
46222;SDS011;31943;51.410;7.564;2024-03-22T04:47:58;21.77;;;16.45;;
46222;SDS011;31943;51.410;7.564;2024-03-22T04:50:23;26.60;;;17.98;;
46222;SDS011;31943;51.410;7.564;2024-03-22T04:52:49;24.23;;;17.95;;
46222;SDS011;31943;51.410;7.564;2024-03-22T04:55:14;23.27;;;17.08;;
46222;SDS011;31943;51.410;7.564;2024-03-22T04:57:41;27.35;;;17.15;;
46222;SDS011;31943;51.410;7.564;2024-03-22T05:00:07;23.15;;;16.13;;
46222;SDS011;31943;51.410;7.564;2024-03-22T05:02:34;23.92;;;16.42;;
46222;SDS011;31943;51.410;7.564;2024-03-22T05:05:00;25.75;;;17.20;;
46222;SDS011;31943;51.410;7.564;2024-03-22T05:07:26;23.52;;;16.65;;
46222;SDS011;31943;51.410;7.564;2024-03-22T05:09:52;24.10;;;16.23;;
46222;SDS011;31943;51.410;7.564;2024-03-22T05:12:18;21.02;;;15.68;;
46222;SDS011;31943;51.410;7.564;2024-03-22T05:14:45;23.85;;;16.05;;
46222;SDS011;31943;51.410;7.564;2024-03-22T05:17:11;23.75;;;15.63;;
46222;SDS011;31943;51.410;7.564;2024-03-22T05:19:36;21.55;;;15.80;;
46222;SDS011;31943;51.410;7.564;2024-03-22T05:22:04;21.63;;;15.38;;
46222;SDS011;31943;51.410;7.564;2024-03-22T05:24:29;23.10;;;15.25;;
46222;SDS011;31943;51.410;7.564;2024-03-22T05:26:55;21.13;;;15.15;;
46222;SDS011;31943;51.410;7.564;2024-03-22T05:29:20;20.77;;;14.95;;
46222;SDS011;31943;51.410;7.564;2024-03-22T05:31:48;20.00;;;15.23;;
46222;SDS011;31943;51.410;7.564;2024-03-22T05:34:15;23.10;;;15.93;;
46222;SDS011;31943;51.410;7.564;2024-03-22T05:36:40;20.05;;;14.77;;
46222;SDS011;31943;51.410;7.564;2024-03-22T05:39:06;20.55;;;14.15;;
46222;SDS011;31943;51.410;7.564;2024-03-22T05:41:31;19.40;;;14.02;;
46222;SDS011;31943;51.410;7.564;2024-03-22T05:44:00;19.85;;;15.20;;
46222;SDS011;31943;51.410;7.564;2024-03-22T05:46:26;17.50;;;13.85;;
46222;SDS011;31943;51.410;7.564;2024-03-22T05:48:53;20.83;;;14.40;;
46222;SDS011;31943;51.410;7.564;2024-03-22T05:51:19;19.90;;;14.23;;
46222;SDS011;31943;51.410;7.564;2024-03-22T05:53:44;17.73;;;12.85;;
46222;SDS011;31943;51.410;7.564;2024-03-22T05:56:11;18.38;;;13.80;;
46222;SDS011;31943;51.410;7.564;2024-03-22T05:58:37;17.25;;;13.68;;
46222;SDS011;31943;51.410;7.564;2024-03-22T06:01:04;19.23;;;13.63;;
46222;SDS011;31943;51.410;7.564;2024-03-22T06:03:32;15.50;;;12.20;;
46222;SDS011;31943;51.410;7.564;2024-03-22T06:05:59;15.77;;;12.45;;
46222;SDS011;31943;51.410;7.564;2024-03-22T06:08:25;19.13;;;12.68;;
46222;SDS011;31943;51.410;7.564;2024-03-22T06:10:51;14.32;;;12.45;;
46222;SDS011;31943;51.410;7.564;2024-03-22T06:13:17;17.10;;;11.90;;
46222;SDS011;31943;51.410;7.564;2024-03-22T06:15:43;17.63;;;12.45;;
46222;SDS011;31943;51.410;7.564;2024-03-22T06:18:10;13.32;;;10.10;;
46222;SDS011;31943;51.410;7.564;2024-03-22T06:20:35;13.25;;;11.07;;
46222;SDS011;31943;51.410;7.564;2024-03-22T06:23:04;14.23;;;10.85;;
46222;SDS011;31943;51.410;7.564;2024-03-22T06:25:30;13.85;;;10.27;;
46222;SDS011;31943;51.410;7.564;2024-03-22T06:27:56;13.45;;;10.88;;
46222;SDS011;31943;51.410;7.564;2024-03-22T06:30:25;17.42;;;11.35;;
46222;SDS011;31943;51.410;7.564;2024-03-22T06:32:51;12.07;;;9.60;;
46222;SDS011;31943;51.410;7.564;2024-03-22T06:35:16;13.90;;;9.85;;
46222;SDS011;31943;51.410;7.564;2024-03-22T06:37:43;17.30;;;10.55;;
46222;SDS011;31943;51.410;7.564;2024-03-22T06:40:11;16.05;;;11.57;;
46222;SDS011;31943;51.410;7.564;2024-03-22T06:42:43;16.42;;;10.38;;
46222;SDS011;31943;51.410;7.564;2024-03-22T06:45:09;12.90;;;10.57;;
46222;SDS011;31943;51.410;7.564;2024-03-22T06:47:34;12.73;;;10.63;;
46222;SDS011;31943;51.410;7.564;2024-03-22T06:50:00;14.65;;;10.73;;
46222;SDS011;31943;51.410;7.564;2024-03-22T06:52:25;12.60;;;10.38;;
46222;SDS011;31943;51.410;7.564;2024-03-22T06:54:51;14.15;;;10.52;;
46222;SDS011;31943;51.410;7.564;2024-03-22T06:57:18;14.70;;;10.70;;
46222;SDS011;31943;51.410;7.564;2024-03-22T06:59:43;13.82;;;10.55;;
46222;SDS011;31943;51.410;7.564;2024-03-22T07:02:09;16.25;;;11.80;;
46222;SDS011;31943;51.410;7.564;2024-03-22T07:04:36;13.98;;;11.43;;
46222;SDS011;31943;51.410;7.564;2024-03-22T07:07:01;13.15;;;10.73;;
46222;SDS011;31943;51.410;7.564;2024-03-22T07:09:28;14.80;;;11.00;;
46222;SDS011;31943;51.410;7.564;2024-03-22T07:11:53;16.55;;;12.00;;
46222;SDS011;31943;51.410;7.564;2024-03-22T07:14:20;15.20;;;12.32;;
46222;SDS011;31943;51.410;7.564;2024-03-22T07:16:46;14.95;;;11.30;;
46222;SDS011;31943;51.410;7.564;2024-03-22T07:19:13;17.52;;;11.85;;
46222;SDS011;31943;51.410;7.564;2024-03-22T07:21:38;14.95;;;12.18;;
46222;SDS011;31943;51.410;7.564;2024-03-22T07:24:04;17.05;;;12.40;;
46222;SDS011;31943;51.410;7.564;2024-03-22T07:26:30;16.45;;;12.00;;
46222;SDS011;31943;51.410;7.564;2024-03-22T07:28:55;17.40;;;11.93;;
46222;SDS011;31943;51.410;7.564;2024-03-22T07:31:23;17.55;;;12.82;;
46222;SDS011;31943;51.410;7.564;2024-03-22T07:33:48;16.10;;;12.80;;
46222;SDS011;31943;51.410;7.564;2024-03-22T07:36:15;14.85;;;11.95;;
46222;SDS011;31943;51.410;7.564;2024-03-22T07:38:41;23.17;;;12.70;;
46222;SDS011;31943;51.410;7.564;2024-03-22T07:41:06;17.08;;;13.05;;
46222;SDS011;31943;51.410;7.564;2024-03-22T07:43:32;19.58;;;12.40;;
46222;SDS011;31943;51.410;7.564;2024-03-22T07:45:57;17.98;;;13.20;;
46222;SDS011;31943;51.410;7.564;2024-03-22T07:48:25;17.40;;;12.88;;
46222;SDS011;31943;51.410;7.564;2024-03-22T07:50:55;19.45;;;12.55;;
46222;SDS011;31943;51.410;7.564;2024-03-22T07:53:21;17.77;;;12.90;;
46222;SDS011;31943;51.410;7.564;2024-03-22T07:55:46;17.70;;;12.40;;
46222;SDS011;31943;51.410;7.564;2024-03-22T07:58:13;19.15;;;13.88;;
46222;SDS011;31943;51.410;7.564;2024-03-22T08:00:38;17.63;;;12.98;;
46222;SDS011;31943;51.410;7.564;2024-03-22T08:03:04;18.00;;;13.30;;
46222;SDS011;31943;51.410;7.564;2024-03-22T08:05:32;20.52;;;14.63;;
46222;SDS011;31943;51.410;7.564;2024-03-22T08:07:58;19.65;;;15.02;;
46222;SDS011;31943;51.410;7.564;2024-03-22T08:10:23;19.55;;;15.35;;
46222;SDS011;31943;51.410;7.564;2024-03-22T08:12:49;20.33;;;15.32;;
46222;SDS011;31943;51.410;7.564;2024-03-22T08:15:14;20.45;;;16.05;;
46222;SDS011;31943;51.410;7.564;2024-03-22T08:17:40;20.27;;;15.13;;
46222;SDS011;31943;51.410;7.564;2024-03-22T08:20:06;21.80;;;15.90;;
46222;SDS011;31943;51.410;7.564;2024-03-22T08:22:33;25.10;;;16.70;;
46222;SDS011;31943;51.410;7.564;2024-03-22T08:24:59;22.30;;;16.20;;
46222;SDS011;31943;51.410;7.564;2024-03-22T08:27:25;22.10;;;17.30;;
46222;SDS011;31943;51.410;7.564;2024-03-22T08:29:52;23.63;;;17.10;;
46222;SDS011;31943;51.410;7.564;2024-03-22T08:32:17;19.27;;;16.05;;
46222;SDS011;31943;51.410;7.564;2024-03-22T08:34:43;19.67;;;15.43;;
46222;SDS011;31943;51.410;7.564;2024-03-22T08:37:08;26.25;;;16.20;;
46222;SDS011;31943;51.410;7.564;2024-03-22T08:39:36;21.23;;;15.85;;
46222;SDS011;31943;51.410;7.564;2024-03-22T08:42:01;21.27;;;16.55;;
46222;SDS011;31943;51.410;7.564;2024-03-22T08:44:29;22.05;;;15.88;;
46222;SDS011;31943;51.410;7.564;2024-03-22T08:46:55;23.05;;;16.30;;
46222;SDS011;31943;51.410;7.564;2024-03-22T08:49:20;19.98;;;16.63;;
46222;SDS011;31943;51.410;7.564;2024-03-22T08:51:47;22.25;;;16.48;;
46222;SDS011;31943;51.410;7.564;2024-03-22T08:54:12;23.13;;;16.38;;
46222;SDS011;31943;51.410;7.564;2024-03-22T08:56:40;21.15;;;16.35;;
46222;SDS011;31943;51.410;7.564;2024-03-22T08:59:05;20.92;;;16.02;;
46222;SDS011;31943;51.410;7.564;2024-03-22T09:01:31;19.95;;;16.55;;
46222;SDS011;31943;51.410;7.564;2024-03-22T09:03:57;22.23;;;15.20;;
46222;SDS011;31943;51.410;7.564;2024-03-22T09:06:23;21.73;;;16.65;;
46222;SDS011;31943;51.410;7.564;2024-03-22T09:08:48;19.73;;;16.23;;
46222;SDS011;31943;51.410;7.564;2024-03-22T09:11:14;21.02;;;15.77;;
46222;SDS011;31943;51.410;7.564;2024-03-22T09:13:41;19.52;;;15.93;;
46222;SDS011;31943;51.410;7.564;2024-03-22T09:16:06;21.17;;;15.93;;
46222;SDS011;31943;51.410;7.564;2024-03-22T09:18:32;18.83;;;14.40;;
46222;SDS011;31943;51.410;7.564;2024-03-22T09:20:58;17.45;;;13.95;;
46222;SDS011;31943;51.410;7.564;2024-03-22T09:23:23;17.17;;;12.98;;
46222;SDS011;31943;51.410;7.564;2024-03-22T09:25:49;16.63;;;13.13;;
46222;SDS011;31943;51.410;7.564;2024-03-22T09:28:14;14.98;;;12.50;;
46222;SDS011;31943;51.410;7.564;2024-03-22T09:30:42;19.58;;;14.27;;
46222;SDS011;31943;51.410;7.564;2024-03-22T09:33:08;18.38;;;14.18;;
46222;SDS011;31943;51.410;7.564;2024-03-22T09:35:34;20.10;;;14.50;;
46222;SDS011;31943;51.410;7.564;2024-03-22T09:37:59;22.55;;;14.65;;
46222;SDS011;31943;51.410;7.564;2024-03-22T09:40:27;19.83;;;14.60;;
46222;SDS011;31943;51.410;7.564;2024-03-22T09:42:57;19.00;;;13.82;;
46222;SDS011;31943;51.410;7.564;2024-03-22T09:45:26;20.60;;;13.70;;
46222;SDS011;31943;51.410;7.564;2024-03-22T09:47:54;15.80;;;10.90;;
46222;SDS011;31943;51.410;7.564;2024-03-22T09:50:21;17.50;;;12.75;;
46222;SDS011;31943;51.410;7.564;2024-03-22T09:52:47;15.98;;;11.77;;
46222;SDS011;31943;51.410;7.564;2024-03-22T09:55:16;17.42;;;10.98;;
46222;SDS011;31943;51.410;7.564;2024-03-22T09:57:57;16.25;;;10.13;;
46222;SDS011;31943;51.410;7.564;2024-03-22T10:00:23;12.68;;;10.20;;
46222;SDS011;31943;51.410;7.564;2024-03-22T10:02:49;14.15;;;10.25;;
46222;SDS011;31943;51.410;7.564;2024-03-22T10:05:18;15.45;;;10.40;;
46222;SDS011;31943;51.410;7.564;2024-03-22T10:07:44;14.00;;;10.55;;
46222;SDS011;31943;51.410;7.564;2024-03-22T10:10:10;12.10;;;10.25;;
46222;SDS011;31943;51.410;7.564;2024-03-22T10:12:37;14.75;;;10.18;;
46222;SDS011;31943;51.410;7.564;2024-03-22T10:15:02;13.88;;;9.18;;
46222;SDS011;31943;51.410;7.564;2024-03-22T10:17:30;12.30;;;8.45;;
46222;SDS011;31943;51.410;7.564;2024-03-22T10:19:55;13.13;;;8.25;;
46222;SDS011;31943;51.410;7.564;2024-03-22T10:22:22;11.00;;;7.55;;
46222;SDS011;31943;51.410;7.564;2024-03-22T10:24:50;12.95;;;8.55;;
46222;SDS011;31943;51.410;7.564;2024-03-22T10:27:19;9.70;;;7.50;;
46222;SDS011;31943;51.410;7.564;2024-03-22T10:29:46;9.93;;;7.82;;
46222;SDS011;31943;51.410;7.564;2024-03-22T10:32:13;12.05;;;7.03;;
46222;SDS011;31943;51.410;7.564;2024-03-22T10:34:38;8.60;;;7.05;;
46222;SDS011;31943;51.410;7.564;2024-03-22T10:37:05;10.05;;;7.50;;
46222;SDS011;31943;51.410;7.564;2024-03-22T10:39:34;9.95;;;7.90;;
46222;SDS011;31943;51.410;7.564;2024-03-22T10:42:02;11.80;;;7.82;;
46222;SDS011;31943;51.410;7.564;2024-03-22T10:44:27;11.18;;;8.23;;
46222;SDS011;31943;51.410;7.564;2024-03-22T10:46:53;14.85;;;8.20;;
46222;SDS011;31943;51.410;7.564;2024-03-22T10:49:22;11.00;;;7.45;;
46222;SDS011;31943;51.410;7.564;2024-03-22T10:51:49;11.30;;;7.70;;
46222;SDS011;31943;51.410;7.564;2024-03-22T10:54:20;9.07;;;6.85;;
46222;SDS011;31943;51.410;7.564;2024-03-22T10:56:53;11.32;;;7.88;;
46222;SDS011;31943;51.410;7.564;2024-03-22T10:59:19;10.73;;;7.22;;
46222;SDS011;31943;51.410;7.564;2024-03-22T11:01:45;7.78;;;6.38;;
46222;SDS011;31943;51.410;7.564;2024-03-22T11:04:11;11.15;;;6.70;;
46222;SDS011;31943;51.410;7.564;2024-03-22T11:06:37;8.38;;;6.15;;
46222;SDS011;31943;51.410;7.564;2024-03-22T11:09:03;9.25;;;7.18;;
46222;SDS011;31943;51.410;7.564;2024-03-22T11:11:29;9.23;;;6.35;;
46222;SDS011;31943;51.410;7.564;2024-03-22T11:13:56;9.50;;;6.95;;
46222;SDS011;31943;51.410;7.564;2024-03-22T11:16:22;10.27;;;6.93;;
46222;SDS011;31943;51.410;7.564;2024-03-22T11:18:47;7.90;;;6.78;;
46222;SDS011;31943;51.410;7.564;2024-03-22T11:21:13;9.75;;;7.22;;
46222;SDS011;31943;51.410;7.564;2024-03-22T11:23:39;10.13;;;6.60;;
46222;SDS011;31943;51.410;7.564;2024-03-22T11:26:10;7.90;;;6.45;;
46222;SDS011;31943;51.410;7.564;2024-03-22T11:28:35;9.30;;;6.50;;
46222;SDS011;31943;51.410;7.564;2024-03-22T11:31:03;9.25;;;6.50;;
46222;SDS011;31943;51.410;7.564;2024-03-22T11:33:29;9.63;;;5.78;;
46222;SDS011;31943;51.410;7.564;2024-03-22T11:35:55;9.82;;;6.45;;
46222;SDS011;31943;51.410;7.564;2024-03-22T11:38:23;10.20;;;6.45;;
46222;SDS011;31943;51.410;7.564;2024-03-22T11:40:49;10.43;;;6.43;;
46222;SDS011;31943;51.410;7.564;2024-03-22T11:43:14;6.53;;;5.22;;
46222;SDS011;31943;51.410;7.564;2024-03-22T11:45:41;9.52;;;5.90;;
46222;SDS011;31943;51.410;7.564;2024-03-22T11:48:09;7.35;;;5.22;;
46222;SDS011;31943;51.410;7.564;2024-03-22T11:50:35;8.30;;;5.43;;
46222;SDS011;31943;51.410;7.564;2024-03-22T11:53:01;8.75;;;5.75;;
46222;SDS011;31943;51.410;7.564;2024-03-22T11:55:27;8.63;;;5.82;;
46222;SDS011;31943;51.410;7.564;2024-03-22T11:57:53;9.00;;;6.07;;
46222;SDS011;31943;51.410;7.564;2024-03-22T12:00:19;9.00;;;6.20;;
46222;SDS011;31943;51.410;7.564;2024-03-22T12:02:44;9.77;;;6.55;;
46222;SDS011;31943;51.410;7.564;2024-03-22T12:05:11;9.77;;;5.57;;
46222;SDS011;31943;51.410;7.564;2024-03-22T12:07:37;9.82;;;6.53;;
46222;SDS011;31943;51.410;7.564;2024-03-22T12:10:04;8.57;;;6.25;;
46222;SDS011;31943;51.410;7.564;2024-03-22T12:12:30;8.77;;;6.60;;
46222;SDS011;31943;51.410;7.564;2024-03-22T12:14:56;7.40;;;6.30;;
46222;SDS011;31943;51.410;7.564;2024-03-22T12:17:23;10.00;;;7.15;;
46222;SDS011;31943;51.410;7.564;2024-03-22T12:19:48;8.95;;;5.97;;
46222;SDS011;31943;51.410;7.564;2024-03-22T12:22:19;9.35;;;6.45;;
46222;SDS011;31943;51.410;7.564;2024-03-22T12:24:46;11.20;;;6.95;;
46222;SDS011;31943;51.410;7.564;2024-03-22T12:27:13;9.55;;;6.95;;
46222;SDS011;31943;51.410;7.564;2024-03-22T12:29:39;9.68;;;7.32;;
46222;SDS011;31943;51.410;7.564;2024-03-22T12:32:06;10.43;;;8.13;;
46222;SDS011;31943;51.410;7.564;2024-03-22T12:34:33;12.15;;;9.23;;
46222;SDS011;31943;51.410;7.564;2024-03-22T12:36:58;12.05;;;9.57;;
46222;SDS011;31943;51.410;7.564;2024-03-22T12:39:26;11.95;;;9.32;;
46222;SDS011;31943;51.410;7.564;2024-03-22T12:41:51;11.40;;;8.48;;
46222;SDS011;31943;51.410;7.564;2024-03-22T12:44:17;10.93;;;8.85;;
46222;SDS011;31943;51.410;7.564;2024-03-22T12:46:43;15.25;;;9.68;;
46222;SDS011;31943;51.410;7.564;2024-03-22T12:49:08;11.55;;;9.88;;
46222;SDS011;31943;51.410;7.564;2024-03-22T12:51:35;12.60;;;9.55;;
46222;SDS011;31943;51.410;7.564;2024-03-22T12:54:01;11.65;;;9.50;;
46222;SDS011;31943;51.410;7.564;2024-03-22T12:56:28;14.25;;;9.73;;
46222;SDS011;31943;51.410;7.564;2024-03-22T12:58:53;16.02;;;9.93;;
46222;SDS011;31943;51.410;7.564;2024-03-22T13:01:19;13.18;;;9.30;;
46222;SDS011;31943;51.410;7.564;2024-03-22T13:03:44;13.73;;;9.73;;
46222;SDS011;31943;51.410;7.564;2024-03-22T13:06:10;12.13;;;9.65;;
46222;SDS011;31943;51.410;7.564;2024-03-22T13:08:35;15.77;;;9.73;;
46222;SDS011;31943;51.410;7.564;2024-03-22T13:11:01;13.98;;;9.63;;
46222;SDS011;31943;51.410;7.564;2024-03-22T13:13:29;12.00;;;10.07;;
46222;SDS011;31943;51.410;7.564;2024-03-22T13:15:56;12.27;;;10.45;;
46222;SDS011;31943;51.410;7.564;2024-03-22T13:18:21;13.80;;;9.93;;
46222;SDS011;31943;51.410;7.564;2024-03-22T13:20:47;14.00;;;10.25;;
46222;SDS011;31943;51.410;7.564;2024-03-22T13:23:12;12.68;;;8.77;;
46222;SDS011;31943;51.410;7.564;2024-03-22T13:25:41;12.38;;;9.70;;
46222;SDS011;31943;51.410;7.564;2024-03-22T13:28:07;13.57;;;10.38;;
46222;SDS011;31943;51.410;7.564;2024-03-22T13:30:34;12.00;;;9.93;;
46222;SDS011;31943;51.410;7.564;2024-03-22T13:33:00;12.57;;;10.13;;
46222;SDS011;31943;51.410;7.564;2024-03-22T13:35:25;15.60;;;11.48;;
46222;SDS011;31943;51.410;7.564;2024-03-22T13:37:51;13.00;;;11.60;;
46222;SDS011;31943;51.410;7.564;2024-03-22T13:40:17;15.10;;;10.88;;
46222;SDS011;31943;51.410;7.564;2024-03-22T13:42:42;14.68;;;10.68;;
46222;SDS011;31943;51.410;7.564;2024-03-22T13:45:08;12.77;;;9.98;;
46222;SDS011;31943;51.410;7.564;2024-03-22T13:47:35;12.82;;;10.40;;
46222;SDS011;31943;51.410;7.564;2024-03-22T13:50:01;15.82;;;11.20;;
46222;SDS011;31943;51.410;7.564;2024-03-22T13:52:27;16.75;;;12.38;;
46222;SDS011;31943;51.410;7.564;2024-03-22T13:54:52;14.93;;;11.57;;
46222;SDS011;31943;51.410;7.564;2024-03-22T13:57:18;17.30;;;12.10;;
46222;SDS011;31943;51.410;7.564;2024-03-22T13:59:44;14.00;;;12.00;;
46222;SDS011;31943;51.410;7.564;2024-03-22T14:02:11;16.67;;;12.38;;
46222;SDS011;31943;51.410;7.564;2024-03-22T14:04:39;15.70;;;12.40;;
46222;SDS011;31943;51.410;7.564;2024-03-22T14:07:04;18.13;;;13.68;;
46222;SDS011;31943;51.410;7.564;2024-03-22T14:09:30;16.00;;;11.85;;
46222;SDS011;31943;51.410;7.564;2024-03-22T14:11:57;14.82;;;8.98;;
46222;SDS011;31943;51.410;7.564;2024-03-22T14:14:22;11.88;;;9.90;;
46222;SDS011;31943;51.410;7.564;2024-03-22T14:16:48;14.88;;;10.32;;
46222;SDS011;31943;51.410;7.564;2024-03-22T14:19:14;15.07;;;10.57;;